createdAt,value
2019-05-16T17:00:17.491Z,101651.34
2019-05-16T17:02:59.351Z,101658.30
2019-05-16T17:05:17.030Z,101657.48
2019-05-16T17:07:44.931Z,101658.25
2019-05-16T17:10:12.803Z,101652.06
2019-05-16T17:12:42.263Z,101645.09
2019-05-16T17:15:10.187Z,101642.12
2019-05-16T17:17:38.537Z,101640.45
2019-05-16T17:20:07.618Z,101641.39
2019-05-16T17:22:37.469Z,101640.08
2019-05-16T17:25:07.159Z,101640.15
2019-05-16T17:27:37.340Z,101642.37
2019-05-16T17:30:07.239Z,101641.50
2019-05-16T17:32:35.739Z,101635.34
2019-05-16T17:35:03.394Z,101633.62
2019-05-16T17:37:31.266Z,101634.48
2019-05-16T17:39:58.965Z,101630.93
2019-05-16T17:42:27.241Z,101635.72
2019-05-16T17:44:56.571Z,101629.15
2019-05-16T17:47:26.303Z,101633.97
2019-05-16T17:49:54.102Z,101631.75
2019-05-16T17:52:21.743Z,101629.54
2019-05-16T17:54:49.506Z,101631.32
2019-05-16T17:57:17.268Z,101631.30
2019-05-16T17:59:47.796Z,101620.69
2019-05-16T18:02:17.121Z,101634.75
2019-05-16T18:04:46.993Z,101636.13
2019-05-16T18:07:14.120Z,101632.24
2019-05-16T18:09:43.089Z,101630.97
2019-05-16T18:12:11.093Z,101633.62
2019-05-16T18:14:38.718Z,101633.64
2019-05-16T18:17:07.639Z,101628.38
2019-05-16T18:19:37.262Z,101633.21
2019-05-16T18:22:06.647Z,101629.27
2019-05-16T18:24:36.764Z,101630.63
2019-05-16T18:27:06.506Z,101626.75
2019-05-16T18:29:36.347Z,101626.30
2019-05-16T18:32:03.654Z,101622.84
2019-05-16T18:34:31.351Z,101625.96
2019-05-16T18:36:59.120Z,101624.22
2019-05-16T18:39:27.245Z,101612.45
2019-05-16T18:41:56.507Z,101619.03
2019-05-16T18:44:24.478Z,101615.12
2019-05-16T18:47:04.058Z,101621.27
2019-05-16T18:49:24.079Z,101621.27
2019-05-16T18:51:51.474Z,101615.56
2019-05-16T18:54:19.448Z,101613.42
2019-05-16T18:56:47.451Z,101620.01
2019-05-16T18:59:16.888Z,101627.06
2019-05-16T19:01:46.890Z,101628.41
2019-05-16T19:04:14.464Z,101621.86
2019-05-16T19:06:42.260Z,101624.98
2019-05-16T19:09:10.199Z,101632.41
2019-05-16T19:11:37.823Z,101627.64
2019-05-16T19:14:07.620Z,101626.34
2019-05-16T19:16:35.312Z,101628.55
2019-05-16T19:19:03.185Z,101632.95
2019-05-16T19:21:30.954Z,101636.47
2019-05-16T19:23:58.687Z,101629.92
2019-05-16T19:26:27.309Z,101633.03
2019-05-16T19:28:57.145Z,101628.20
2019-05-16T19:31:24.931Z,101629.09
2019-05-16T19:33:52.696Z,101633.93
2019-05-16T19:36:20.331Z,101632.65
2019-05-16T19:38:48.102Z,101644.48
2019-05-16T19:41:15.974Z,101641.05
2019-05-16T19:43:43.848Z,101645.88
2019-05-16T19:46:11.513Z,101647.63
2019-05-16T19:48:39.181Z,101642.80
2019-05-16T19:51:07.555Z,101645.91
2019-05-16T19:53:36.478Z,101639.80
2019-05-16T19:56:04.343Z,101639.84
2019-05-16T19:58:32.205Z,101646.84
2019-05-16T20:00:59.974Z,101637.69
2019-05-16T20:03:27.639Z,101637.70
2019-05-16T20:05:56.871Z,101635.55
2019-05-16T20:08:26.868Z,101633.36
2019-05-16T20:10:54.327Z,101635.15
2019-05-16T20:13:22.205Z,101631.64
2019-05-16T20:15:49.785Z,101635.17
2019-05-16T20:18:18.502Z,101635.18
2019-05-16T20:20:47.210Z,101642.21
2019-05-16T20:23:16.606Z,101619.97
2019-05-16T20:25:46.885Z,101637.82
2019-05-16T20:28:14.413Z,101636.11
2019-05-16T20:30:42.166Z,101633.89
2019-05-16T20:33:09.737Z,101631.32
2019-05-16T20:35:37.698Z,101635.69
2019-05-16T20:38:06.819Z,101625.20
2019-05-16T20:40:37.206Z,101624.28
2019-05-16T20:43:07.373Z,101621.22
2019-05-16T20:45:36.195Z,101628.20
2019-05-16T20:48:12.297Z,101627.81
2019-05-16T20:50:33.431Z,101619.11
2019-05-16T20:53:01.250Z,101625.28
2019-05-16T20:55:28.915Z,101621.75
2019-05-16T20:57:57.504Z,101617.40
2019-05-16T21:00:26.808Z,101623.97
2019-05-16T21:02:54.682Z,101624.41
2019-05-16T21:05:22.454Z,101623.99
2019-05-16T21:07:50.326Z,101620.52
2019-05-16T21:10:18.014Z,101623.99
2019-05-16T21:12:46.816Z,101612.66
2019-05-16T21:15:17.139Z,101611.77
2019-05-16T21:17:46.663Z,101613.09
2019-05-16T21:20:14.705Z,101615.28
2019-05-16T21:22:42.593Z,101612.24
2019-05-16T21:25:10.544Z,101615.28
2019-05-16T21:27:38.131Z,101607.86
2019-05-16T21:30:07.448Z,101610.06
2019-05-16T21:32:36.524Z,101604.40
2019-05-16T21:35:06.994Z,101595.64
2019-05-16T21:37:34.679Z,101597.36
2019-05-16T21:40:04.532Z,101589.96
2019-05-16T21:42:32.266Z,101591.29
2019-05-16T21:45:00.033Z,101587.78
2019-05-16T21:47:27.787Z,101588.66
2019-05-16T21:49:56.848Z,101585.16
2019-05-16T21:52:28.555Z,101583.84
2019-05-16T21:54:56.337Z,101587.38
2019-05-16T21:57:23.461Z,101591.78
2019-05-16T21:59:51.197Z,101581.30
2019-05-16T22:02:18.804Z,101588.76
2019-05-16T22:04:47.391Z,101586.13
2019-05-16T22:07:16.590Z,101575.66
2019-05-16T22:09:46.438Z,101570.41
2019-05-16T22:12:13.928Z,101570.83
2019-05-16T22:14:47.410Z,101567.80
2019-05-16T22:17:16.953Z,101566.47
2019-05-16T22:19:46.841Z,101560.75
2019-05-16T22:22:16.439Z,101559.02
2019-05-16T22:24:46.148Z,101554.26
2019-05-16T22:27:13.688Z,101554.70
2019-05-16T22:29:41.453Z,101557.34
2019-05-16T22:32:09.430Z,101549.47
2019-05-16T22:34:37.159Z,101544.22
2019-05-16T22:37:06.530Z,101541.59
2019-05-16T22:39:34.235Z,101538.13
2019-05-16T22:42:01.943Z,101532.00
2019-05-16T22:44:29.637Z,101532.88
2019-05-16T22:46:57.440Z,101523.70
2019-05-16T22:49:27.349Z,101526.77
2019-05-16T22:51:57.043Z,101528.54
2019-05-16T22:54:26.271Z,101521.11
2019-05-16T22:56:54.453Z,101530.28
2019-05-16T22:59:22.124Z,101519.39
2019-05-16T23:01:50.096Z,101523.73
2019-05-16T23:04:17.871Z,101521.11
2019-05-16T23:06:45.635Z,101514.14
2019-05-16T23:09:13.527Z,101521.13
2019-05-16T23:11:41.592Z,101514.55
2019-05-16T23:14:09.350Z,101513.25
2019-05-16T23:16:37.497Z,101508.46
2019-05-16T23:19:06.653Z,101503.64
2019-05-16T23:21:36.593Z,101502.75
2019-05-16T23:24:04.013Z,101502.33
2019-05-16T23:26:31.683Z,101497.97
2019-05-16T23:28:59.348Z,101493.15
2019-05-16T23:31:27.262Z,101490.11
2019-05-16T23:33:56.463Z,101490.11
2019-05-16T23:36:26.351Z,101481.80
2019-05-16T23:38:53.902Z,101481.36
2019-05-16T23:41:21.777Z,101483.98
2019-05-16T23:43:49.545Z,101473.50
2019-05-16T23:46:17.213Z,101472.66
2019-05-16T23:48:47.060Z,101467.84
2019-05-16T23:51:16.785Z,101470.05
2019-05-16T23:53:46.448Z,101464.82
2019-05-16T23:56:16.550Z,101460.91
2019-05-16T23:58:43.841Z,101457.38
